Time;durP1;ratioP1;P1;durP2;ratioP2;P2;SDS_P1;SDS_P2;PMS_P1;PMS_P2;Temp;Humidity;BMP_temperature;BMP_pressure;BME280_temperature;BME280_humidity;BME280_pressure;Samples;Min_cycle;Max_cycle;Signal;HPM_P1;HPM_P2
2023/09/27 00:00:39;;;;;;;21.05;18.70;;;14.90;99.90;;;;;;6274447;22;20016;-48
2023/09/27 00:03:05;;;;;;;18.88;16.95;;;15.00;99.90;;;;;;6274810;22;20087;-44
2023/09/27 00:05:31;;;;;;;20.60;18.75;;;15.00;99.90;;;;;;6274892;22;20487;-45
2023/09/27 00:07:57;;;;;;;21.58;19.48;;;15.00;99.90;;;;;;6274427;22;20061;-44
2023/09/27 00:10:22;;;;;;;23.00;20.60;;;15.00;99.90;;;;;;6274759;22;20034;-45
2023/09/27 00:12:48;;;;;;;22.02;19.83;;;14.90;99.90;;;;;;6274702;22;20008;-45
2023/09/27 00:15:15;;;;;;;21.75;19.65;;;14.90;99.90;;;;;;6274481;22;20444;-45
2023/09/27 00:17:42;;;;;;;22.45;20.15;;;14.90;99.90;;;;;;6273867;22;20007;-45
2023/09/27 00:20:11;;;;;;;24.02;21.73;;;14.80;99.90;;;;;;6274698;22;20062;-44
2023/09/27 00:22:37;;;;;;;24.20;21.90;;;14.80;99.90;;;;;;6274244;22;20012;-44
2023/09/27 00:25:04;;;;;;;23.45;21.20;;;14.80;99.90;;;;;;6275247;22;20167;-46
2023/09/27 00:27:32;;;;;;;23.70;21.45;;;14.70;99.90;;;;;;6274375;22;20026;-47
2023/09/27 00:29:57;;;;;;;23.27;20.98;;;14.70;99.90;;;;;;6274280;22;20478;-48
2023/09/27 00:32:23;;;;;;;25.35;22.83;;;14.70;99.90;;;;;;6274849;22;20016;-45
2023/09/27 00:34:49;;;;;;;24.63;21.38;;;14.70;99.90;;;;;;6274310;22;20018;-47
2023/09/27 00:37:14;;;;;;;22.30;20.05;;;14.60;99.90;;;;;;6274844;22;20035;-44
2023/09/27 00:39:40;;;;;;;23.45;21.02;;;14.60;99.90;;;;;;6274572;22;20166;-48
2023/09/27 00:42:06;;;;;;;23.92;21.63;;;14.60;99.90;;;;;;6274177;22;20463;-48
2023/09/27 00:44:31;;;;;;;24.02;21.63;;;14.60;99.90;;;;;;6247188;22;20020;-44
2023/09/27 00:46:57;;;;;;;24.35;21.88;;;14.60;99.90;;;;;;6274521;22;20320;-44
2023/09/27 00:49:24;;;;;;;24.20;21.73;;;14.50;99.90;;;;;;6274420;22;20086;-44
2023/09/27 00:51:51;;;;;;;23.80;21.50;;;14.50;99.90;;;;;;6274685;22;20015;-45
2023/09/27 00:54:17;;;;;;;25.10;22.60;;;14.50;99.90;;;;;;6276664;22;20019;-49
2023/09/27 00:56:43;;;;;;;25.20;22.20;;;14.50;99.90;;;;;;6275341;22;20008;-47
2023/09/27 00:59:09;;;;;;;24.35;21.95;;;14.50;99.90;;;;;;6274178;22;20008;-46
2023/09/27 01:01:35;;;;;;;26.40;23.73;;;14.50;99.90;;;;;;6274453;22;20073;-47
2023/09/27 01:04:02;;;;;;;27.73;24.42;;;14.60;99.90;;;;;;6274525;22;20020;-45
2023/09/27 01:06:27;;;;;;;25.98;23.27;;;14.60;99.90;;;;;;6247186;22;20042;-47
2023/09/27 01:08:53;;;;;;;25.85;23.33;;;14.60;99.90;;;;;;6274512;22;20016;-45
2023/09/27 01:11:19;;;;;;;25.63;22.98;;;14.70;99.90;;;;;;6274091;22;20016;-47
2023/09/27 01:13:44;;;;;;;26.27;23.50;;;14.70;99.90;;;;;;6273708;22;20012;-49
2023/09/27 01:16:10;;;;;;;27.05;24.45;;;14.70;99.90;;;;;;6274235;22;20011;-46
2023/09/27 01:18:37;;;;;;;26.30;23.75;;;14.80;99.90;;;;;;6274497;22;20066;-45
2023/09/27 01:21:03;;;;;;;26.50;24.05;;;14.70;99.90;;;;;;6274112;22;20011;-46
2023/09/27 01:23:28;;;;;;;25.10;22.63;;;14.70;99.90;;;;;;6247354;22;20098;-45
2023/09/27 01:25:59;;;;;;;27.67;25.02;;;14.70;99.90;;;;;;6274118;22;20052;-46
2023/09/27 01:28:26;;;;;;;26.30;23.80;;;14.60;99.90;;;;;;6273365;22;20090;-49
2023/09/27 01:30:51;;;;;;;25.13;22.92;;;14.60;99.90;;;;;;6274337;22;20080;-46
2023/09/27 01:33:17;;;;;;;25.58;22.85;;;14.60;99.90;;;;;;6274195;22;20467;-46
2023/09/27 01:35:44;;;;;;;26.50;23.92;;;14.50;99.90;;;;;;6274083;22;20052;-47
2023/09/27 01:38:11;;;;;;;25.45;23.15;;;14.50;99.90;;;;;;6274226;22;20335;-48
2023/09/27 01:40:39;;;;;;;26.85;24.33;;;;;;;;;;6273937;22;20012;-45
2023/09/27 01:43:05;;;;;;;26.25;23.63;;;14.50;99.90;;;;;;6274361;22;20015;-49
2023/09/27 01:45:31;;;;;;;26.33;23.63;;;14.40;99.90;;;;;;6274039;22;20431;-45
2023/09/27 01:47:58;;;;;;;28.35;25.52;;;14.50;99.90;;;;;;6274449;22;20052;-47
2023/09/27 01:50:25;;;;;;;26.57;23.97;;;14.40;99.90;;;;;;6273764;22;20375;-46
2023/09/27 01:52:55;;;;;;;26.58;23.80;;;14.40;99.90;;;;;;6274573;22;20008;-49
2023/09/27 01:55:22;;;;;;;27.58;24.88;;;14.30;99.90;;;;;;6277938;22;20019;-46
2023/09/27 01:57:47;;;;;;;27.65;25.02;;;14.30;99.90;;;;;;6221756;22;20143;-46
2023/09/27 02:00:15;;;;;;;28.25;25.35;;;14.20;99.90;;;;;;6273870;22;20019;-46
2023/09/27 02:02:47;;;;;;;28.00;25.17;;;14.20;99.90;;;;;;6274228;22;20289;-46
2023/09/27 02:05:12;;;;;;;26.20;23.60;;;14.20;99.90;;;;;;6274082;22;20091;-47
2023/09/27 02:07:39;;;;;;;28.52;25.67;;;14.10;99.90;;;;;;6274232;22;20015;-49
2023/09/27 02:10:09;;;;;;;27.70;24.95;;;14.10;99.90;;;;;;6274193;22;20398;-47
2023/09/27 02:12:39;;;;;;;28.98;26.08;;;;;;;;;;6273984;22;20016;-46
2023/09/27 02:15:09;;;;;;;27.15;24.65;;;14.00;99.90;;;;;;6274379;22;20019;-48
2023/09/27 02:17:39;;;;;;;27.50;24.88;;;13.90;99.90;;;;;;6274232;22;20031;-46
2023/09/27 02:20:11;;;;;;;26.48;23.98;;;13.90;99.90;;;;;;6273976;22;20389;-47
2023/09/27 02:22:38;;;;;;;28.70;25.65;;;;;;;;;;6246776;22;20051;-49
2023/09/27 02:25:09;;;;;;;31.90;28.33;;;13.80;99.90;;;;;;6273920;22;20024;-46
2023/09/27 02:27:35;;;;;;;31.08;28.05;;;13.80;99.90;;;;;;6273537;22;20308;-47
2023/09/27 02:30:02;;;;;;;30.65;27.65;;;13.80;99.90;;;;;;6274267;22;20027;-47
2023/09/27 02:32:27;;;;;;;29.00;26.40;;;13.80;99.90;;;;;;6273835;22;20106;-46
2023/09/27 02:34:53;;;;;;;30.33;27.52;;;13.70;99.90;;;;;;6274243;22;20038;-46
2023/09/27 02:37:20;;;;;;;29.70;26.80;;;13.70;99.90;;;;;;6273320;22;20019;-46
2023/09/27 02:39:46;;;;;;;30.42;27.30;;;13.70;99.90;;;;;;6274221;22;20016;-47
2023/09/27 02:42:12;;;;;;;31.35;28.17;;;13.70;99.90;;;;;;6275811;22;20462;-45
2023/09/27 02:44:38;;;;;;;30.80;27.80;;;13.60;99.90;;;;;;6276272;22;20016;-46
2023/09/27 02:47:04;;;;;;;28.77;26.08;;;13.60;99.90;;;;;;6275455;22;20332;-48
2023/09/27 02:49:29;;;;;;;30.38;27.42;;;13.50;99.90;;;;;;6275462;22;20023;-46
2023/09/27 02:51:55;;;;;;;32.50;29.17;;;13.50;99.90;;;;;;6275971;22;20440;-48
2023/09/27 02:54:21;;;;;;;30.63;27.63;;;13.50;99.90;;;;;;6277877;22;20023;-47
2023/09/27 02:56:47;;;;;;;29.95;26.80;;;13.40;99.90;;;;;;6279391;22;20043;-45
2023/09/27 02:59:13;;;;;;;29.23;26.33;;;13.40;99.90;;;;;;6275700;22;20022;-48
2023/09/27 03:01:43;;;;;;;31.52;28.40;;;13.30;99.90;;;;;;6275110;22;20011;-47
2023/09/27 03:04:10;;;;;;;30.58;27.63;;;13.30;99.90;;;;;;6275837;22;20008;-46
2023/09/27 03:06:37;;;;;;;29.00;26.40;;;13.30;99.90;;;;;;6275522;22;20386;-46
2023/09/27 03:09:03;;;;;;;29.63;26.73;;;13.20;99.90;;;;;;6275796;22;20023;-46
2023/09/27 03:11:29;;;;;;;31.45;28.38;;;13.20;99.90;;;;;;6248174;22;20026;-45
2023/09/27 03:13:55;;;;;;;28.23;25.60;;;13.20;99.90;;;;;;6275521;22;20012;-50
2023/09/27 03:16:21;;;;;;;31.75;28.50;;;13.10;99.90;;;;;;6275508;22;20012;-44
2023/09/27 03:18:47;;;;;;;30.23;27.33;;;13.10;99.90;;;;;;6275317;22;20508;-47
2023/09/27 03:21:13;;;;;;;29.80;26.75;;;;;;;;;;6275571;22;20035;-45
2023/09/27 03:23:39;;;;;;;30.70;27.70;;;13.00;99.90;;;;;;6247915;22;20090;-46
2023/09/27 03:26:04;;;;;;;30.58;27.58;;;13.00;99.90;;;;;;6275591;22;20434;-48
2023/09/27 03:28:30;;;;;;;31.77;28.63;;;13.00;99.90;;;;;;6274591;22;20424;-45
2023/09/27 03:30:56;;;;;;;27.90;25.30;;;13.00;99.90;;;;;;6275216;22;20012;-49
2023/09/27 03:33:22;;;;;;;31.70;28.60;;;12.90;99.90;;;;;;6275349;22;20018;-46
2023/09/27 03:35:47;;;;;;;31.52;28.40;;;12.90;99.90;;;;;;6275305;22;20343;-47
2023/09/27 03:38:13;;;;;;;34.03;30.63;;;12.90;99.90;;;;;;6275073;22;20100;-45
2023/09/27 03:40:42;;;;;;;33.60;30.10;;;12.90;99.90;;;;;;6275051;22;20011;-49
2023/09/27 03:43:07;;;;;;;34.65;30.52;;;13.00;99.90;;;;;;6275250;22;20024;-45
2023/09/27 03:45:35;;;;;;;36.35;32.55;;;13.00;99.90;;;;;;6247927;22;20023;-47
2023/09/27 03:48:01;;;;;;;;;;;13.00;99.90;;;;;;6275156;22;20478;-47
2023/09/27 03:50:27;;;;;;;36.55;32.70;;;13.10;99.90;;;;;;6275272;22;19919;-48
2023/09/27 03:52:56;;;;;;;38.17;34.28;;;13.00;99.90;;;;;;6275396;22;20331;-46
2023/09/27 03:55:22;;;;;;;33.95;30.75;;;13.00;99.90;;;;;;6248508;22;20350;-45
2023/09/27 03:57:47;;;;;;;36.75;32.90;;;13.10;99.90;;;;;;6275976;22;20086;-46
2023/09/27 04:00:14;;;;;;;34.38;31.05;;;13.10;99.90;;;;;;6275279;22;20018;-45
2023/09/27 04:02:44;;;;;;;36.42;32.90;;;13.00;99.90;;;;;;6274755;22;20027;-47
2023/09/27 04:05:10;;;;;;;36.42;32.38;;;13.10;99.90;;;;;;6275247;22;20015;-47
2023/09/27 04:07:36;;;;;;;38.13;34.28;;;13.10;99.90;;;;;;6274901;22;20039;-45
2023/09/27 04:10:03;;;;;;;35.25;31.92;;;13.10;99.90;;;;;;6275132;22;20019;-45
2023/09/27 04:12:29;;;;;;;35.67;32.17;;;13.10;99.90;;;;;;6274289;22;20522;-46
2023/09/27 04:14:55;;;;;;;38.10;34.20;;;13.10;99.90;;;;;;6274637;22;20459;-46
2023/09/27 04:17:21;;;;;;;36.35;32.58;;;13.10;99.90;;;;;;6274843;22;20302;-47
2023/09/27 04:19:55;;;;;;;38.28;34.50;;;13.10;99.90;;;;;;6274541;22;20034;-47
2023/09/27 04:22:20;;;;;;;38.78;35.08;;;13.20;99.90;;;;;;6247799;22;20019;-47
2023/09/27 04:24:46;;;;;;;36.90;33.22;;;13.20;99.90;;;;;;6274493;22;20018;-45
2023/09/27 04:27:12;;;;;;;37.10;33.60;;;13.10;99.90;;;;;;6274173;22;20273;-48
2023/09/27 04:29:38;;;;;;;38.97;35.08;;;13.10;99.90;;;;;;6274728;22;20011;-47
2023/09/27 04:32:04;;;;;;;38.25;34.42;;;13.10;99.90;;;;;;6274438;22;20336;-49
2023/09/27 04:34:29;;;;;;;37.63;33.63;;;13.10;99.90;;;;;;6274274;22;20459;-48
2023/09/27 04:36:56;;;;;;;37.15;33.22;;;13.10;99.90;;;;;;6274308;22;20072;-47
2023/09/27 04:39:21;;;;;;;34.47;31.20;;;13.00;99.90;;;;;;6274698;22;20278;-49
2023/09/27 04:41:47;;;;;;;34.33;31.02;;;12.90;99.90;;;;;;6274620;22;20023;-46
2023/09/27 04:44:13;;;;;;;34.60;31.13;;;12.90;99.90;;;;;;6274133;22;20011;-45
2023/09/27 04:46:39;;;;;;;34.83;31.45;;;12.80;99.90;;;;;;6274019;22;20016;-49
2023/09/27 04:49:05;;;;;;;33.20;29.80;;;12.80;99.90;;;;;;6274523;22;20065;-49
2023/09/27 04:51:31;;;;;;;38.95;34.95;;;12.80;99.90;;;;;;6274538;22;20356;-45
2023/09/27 04:54:03;;;;;;;36.58;32.92;;;12.80;99.90;;;;;;6275201;22;20019;-46
2023/09/27 04:56:30;;;;;;;35.13;31.63;;;12.70;99.90;;;;;;6276337;22;20051;-46
2023/09/27 04:59:01;;;;;;;37.78;34.00;;;12.60;99.90;;;;;;6274465;22;20109;-46
2023/09/27 05:01:27;;;;;;;34.30;30.83;;;12.60;99.90;;;;;;6274041;22;20269;-46
2023/09/27 05:03:53;;;;;;;35.10;31.65;;;12.60;99.90;;;;;;6274048;22;20038;-47
2023/09/27 05:06:20;;;;;;;37.88;34.05;;;12.60;99.90;;;;;;6274023;22;20439;-48
2023/09/27 05:08:45;;;;;;;35.10;31.52;;;12.60;99.90;;;;;;6274051;22;20022;-46
2023/09/27 05:11:11;;;;;;;37.50;33.88;;;12.60;99.90;;;;;;6274042;22;20015;-47
2023/09/27 05:13:36;;;;;;;38.13;34.35;;;12.50;99.90;;;;;;6273755;22;20016;-45
2023/09/27 05:16:03;;;;;;;38.60;34.80;;;12.50;99.90;;;;;;6273836;22;20011;-49
2023/09/27 05:18:28;;;;;;;39.10;35.33;;;12.50;99.90;;;;;;6273670;22;20019;-45
2023/09/27 05:20:54;;;;;;;42.63;38.42;;;12.60;99.90;;;;;;6246714;22;20043;-45
2023/09/27 05:23:20;;;;;;;39.28;35.38;;;12.60;99.90;;;;;;6274005;22;20016;-46
2023/09/27 05:25:47;;;;;;;41.50;37.10;;;12.60;99.90;;;;;;6273742;22;20008;-45
2023/09/27 05:28:12;;;;;;;42.00;37.90;;;12.60;99.90;;;;;;6273621;22;20444;-48
2023/09/27 05:30:38;;;;;;;44.78;39.97;;;12.70;99.90;;;;;;6273698;22;20146;-47
2023/09/27 05:33:07;;;;;;;41.67;37.20;;;12.70;99.90;;;;;;6274023;22;20016;-46
2023/09/27 05:35:33;;;;;;;39.58;35.55;;;12.70;99.90;;;;;;6246846;22;20048;-46
2023/09/27 05:37:59;;;;;;;43.20;38.70;;;12.80;99.90;;;;;;6246391;22;20012;-47
2023/09/27 05:40:24;;;;;;;44.65;40.15;;;12.80;99.90;;;;;;6273611;22;20077;-46
2023/09/27 05:42:50;;;;;;;44.40;40.00;;;12.90;99.90;;;;;;6274180;22;20086;-46
2023/09/27 05:45:16;;;;;;;47.67;42.70;;;13.00;99.90;;;;;;6273545;22;20501;-46
2023/09/27 05:47:42;;;;;;;46.45;41.75;;;13.00;99.90;;;;;;6273453;22;20011;-46
2023/09/27 05:50:09;;;;;;;45.15;40.35;;;13.10;99.90;;;;;;6274002;22;20336;-46
2023/09/27 05:52:35;;;;;;;46.40;41.53;;;13.20;99.90;;;;;;6274422;22;20019;-47
2023/09/27 05:55:05;;;;;;;50.35;44.97;;;13.30;99.90;;;;;;6273984;22;20090;-46
2023/09/27 05:57:31;;;;;;;47.65;42.50;;;13.40;99.90;;;;;;6275677;22;20012;-46
2023/09/27 05:59:58;;;;;;;43.10;38.58;;;13.40;99.90;;;;;;6273916;22;20069;-47
2023/09/27 06:02:30;;;;;;;45.78;40.85;;;13.50;99.90;;;;;;6274414;22;20019;-48
2023/09/27 06:04:57;;;;;;;44.10;39.75;;;13.50;99.90;;;;;;6273707;22;20799;-46
2023/09/27 06:07:23;;;;;;;45.03;40.38;;;13.60;99.90;;;;;;6273992;22;20012;-49
2023/09/27 06:09:49;;;;;;;50.05;44.92;;;13.60;99.90;;;;;;6273778;22;20110;-47
2023/09/27 06:12:14;;;;;;;47.33;41.20;;;13.60;99.90;;;;;;6274267;22;20045;-48
2023/09/27 06:14:42;;;;;;;42.75;38.25;;;13.60;99.90;;;;;;6274585;22;20339;-47
2023/09/27 06:17:08;;;;;;;41.95;37.88;;;13.70;99.90;;;;;;6276264;22;20015;-47
2023/09/27 06:19:34;;;;;;;41.90;37.55;;;13.80;99.90;;;;;;6275942;22;20016;-45
2023/09/27 06:22:04;;;;;;;41.65;37.35;;;13.70;99.90;;;;;;6276009;22;20022;-47
2023/09/27 06:24:29;;;;;;;42.88;38.83;;;13.80;99.90;;;;;;6275814;22;20022;-46
2023/09/27 06:26:55;;;;;;;43.03;38.83;;;13.80;99.90;;;;;;6275070;22;20012;-47
2023/09/27 06:29:21;;;;;;;41.13;37.13;;;13.90;99.90;;;;;;6248012;22;20035;-48
2023/09/27 06:31:49;;;;;;;41.10;37.05;;;13.90;99.90;;;;;;6275764;22;20045;-47
2023/09/27 06:34:15;;;;;;;41.42;37.38;;;14.00;99.90;;;;;;6275712;22;20076;-47
2023/09/27 06:36:42;;;;;;;45.05;40.72;;;14.00;99.90;;;;;;6275520;22;20427;-50
2023/09/27 06:39:12;;;;;;;41.97;37.80;;;14.10;99.90;;;;;;6275643;22;20056;-46
2023/09/27 06:41:39;;;;;;;43.35;39.13;;;13.30;99.90;;;;;;6275371;22;20043;-47
2023/09/27 06:44:06;;;;;;;43.17;38.95;;;14.60;99.90;;;;;;6275569;22;20018;-46
2023/09/27 06:46:33;;;;;;;41.15;36.58;;;14.70;99.90;;;;;;6276083;22;20039;-48
2023/09/27 06:48:59;;;;;;;41.70;37.20;;;14.70;99.90;;;;;;6276736;22;20077;-47
2023/09/27 06:51:25;;;;;;;41.72;37.45;;;14.70;99.90;;;;;;6249241;22;20026;-47
2023/09/27 06:53:50;;;;;;;41.60;37.53;;;14.70;99.90;;;;;;6275553;22;20011;-46
2023/09/27 06:56:16;;;;;;;40.03;36.00;;;14.80;99.90;;;;;;6279510;22;20125;-48
2023/09/27 06:58:42;;;;;;;39.80;35.72;;;14.70;99.90;;;;;;6279243;22;20108;-46
2023/09/27 07:01:07;;;;;;;41.25;37.15;;;14.80;99.90;;;;;;6275863;22;20012;-47
2023/09/27 07:03:33;;;;;;;40.65;36.55;;;14.80;99.90;;;;;;6276026;22;20019;-47
2023/09/27 07:05:59;;;;;;;39.38;35.60;;;14.80;99.90;;;;;;6274994;22;20533;-48
2023/09/27 07:08:24;;;;;;;37.33;33.58;;;14.90;99.90;;;;;;6275594;22;20328;-47
2023/09/27 07:10:50;;;;;;;38.25;34.38;;;15.00;99.90;;;;;;6275901;22;20411;-46
2023/09/27 07:13:16;;;;;;;38.35;34.72;;;15.10;99.90;;;;;;6276336;22;20019;-46
2023/09/27 07:15:45;;;;;;;39.53;35.70;;;15.10;99.90;;;;;;6275457;22;20020;-49
2023/09/27 07:18:12;;;;;;;40.03;35.88;;;15.20;99.90;;;;;;6248351;22;20016;-47
2023/09/27 07:20:40;;;;;;;37.03;33.53;;;15.30;99.90;;;;;;6277007;22;20031;-46
2023/09/27 07:23:07;;;;;;;39.50;35.70;;;15.40;99.90;;;;;;6277550;22;20027;-47
2023/09/27 07:25:34;;;;;;;38.60;34.17;;;15.50;99.90;;;;;;6277423;22;20135;-48
2023/09/27 07:28:03;;;;;;;38.97;35.05;;;15.70;99.90;;;;;;6248983;22;20258;-47
2023/09/27 07:30:29;;;;;;;39.67;35.83;;;15.80;99.90;;;;;;6277182;22;20110;-50
2023/09/27 07:32:56;;;;;;;38.83;34.88;;;16.10;99.90;;;;;;6277262;22;20115;-47
2023/09/27 07:35:23;;;;;;;36.53;33.07;;;16.20;99.90;;;;;;6276676;22;20012;-47
2023/09/27 07:37:50;;;;;;;37.20;33.63;;;;;;;;;;6276954;22;20044;-47
2023/09/27 07:40:17;;;;;;;35.28;31.90;;;16.60;99.90;;;;;;6276175;22;20016;-48
2023/09/27 07:42:43;;;;;;;35.38;31.85;;;;;;;;;;6276189;22;20011;-47
2023/09/27 07:45:21;;;;;;;34.60;31.40;;;16.60;99.90;;;;;;6275626;22;20432;-49
2023/09/27 07:47:48;;;;;;;33.67;30.60;;;16.60;99.90;;;;;;6276764;22;20016;-49
2023/09/27 07:50:15;;;;;;;35.35;31.98;;;16.70;99.90;;;;;;6276592;22;20015;-48
2023/09/27 07:52:41;;;;;;;32.73;29.53;;;16.70;99.90;;;;;;6275921;22;20293;-49
2023/09/27 07:55:10;;;;;;;34.47;30.75;;;16.80;99.90;;;;;;6276439;22;20238;-48
2023/09/27 07:57:36;;;;;;;33.70;30.50;;;16.80;99.90;;;;;;6276983;22;20019;-47
2023/09/27 08:00:08;;;;;;;36.63;32.80;;;16.90;99.90;;;;;;6248845;22;20022;-47
2023/09/27 08:02:34;;;;;;;34.85;31.50;;;17.00;99.90;;;;;;6276486;22;20015;-47
2023/09/27 08:05:09;;;;;;;35.90;32.38;;;17.10;99.90;;;;;;6248972;22;20109;-50
2023/09/27 08:07:38;;;;;;;34.72;31.38;;;17.10;99.90;;;;;;6276211;22;20331;-49
2023/09/27 08:10:05;;;;;;;34.15;30.77;;;17.10;99.90;;;;;;6275343;22;20007;-46
2023/09/27 08:12:32;;;;;;;33.47;30.33;;;17.10;99.90;;;;;;6275548;22;20077;-47
2023/09/27 08:14:59;;;;;;;31.83;28.92;;;17.00;99.90;;;;;;6275417;22;20007;-48
2023/09/27 08:17:25;;;;;;;33.50;30.23;;;17.10;99.90;;;;;;6275565;22;20007;-47
2023/09/27 08:19:51;;;;;;;32.50;29.42;;;17.10;99.90;;;;;;6274878;22;20023;-48
2023/09/27 08:22:17;;;;;;;33.53;30.40;;;17.20;99.90;;;;;;6275096;22;20016;-49
2023/09/27 08:24:43;;;;;;;33.80;30.48;;;17.30;99.90;;;;;;6275913;22;20092;-49
2023/09/27 08:27:08;;;;;;;33.35;30.05;;;17.50;99.90;;;;;;6275085;22;20096;-48
2023/09/27 08:29:35;;;;;;;33.67;30.58;;;17.80;99.90;;;;;;6275595;22;20027;-50
2023/09/27 08:32:00;;;;;;;37.30;33.70;;;18.20;99.90;;;;;;6276286;22;20317;-48
2023/09/27 08:34:26;;;;;;;33.85;30.58;;;18.00;99.90;;;;;;6275896;22;20117;-48
2023/09/27 08:36:54;;;;;;;32.75;29.45;;;18.00;99.90;;;;;;6275574;22;20019;-49
2023/09/27 08:39:20;;;;;;;33.58;30.48;;;;;;;;;;6274896;22;20008;-49
2023/09/27 08:41:46;;;;;;;30.55;27.75;;;18.40;99.90;;;;;;6247679;22;20011;-48
2023/09/27 08:44:12;;;;;;;32.38;27.73;;;18.40;99.90;;;;;;6275246;22;20098;-48
2023/09/27 08:46:40;;;;;;;30.70;27.67;;;18.50;99.90;;;;;;6276006;22;20015;-49
2023/09/27 08:49:08;;;;;;;27.17;24.70;;;;;;;;;;6275907;22;20424;-51
2023/09/27 08:51:35;;;;;;;29.73;27.02;;;18.70;99.90;;;;;;6275584;22;20509;-51
2023/09/27 08:54:02;;;;;;;30.05;27.00;;;18.80;99.90;;;;;;6248336;22;20018;-49
2023/09/27 08:56:28;;;;;;;29.20;26.33;;;;;;;;;;6278830;22;20020;-48
2023/09/27 08:58:55;;;;;;;28.80;26.30;;;18.70;99.90;;;;;;6277384;22;20332;-52
2023/09/27 09:01:21;;;;;;;28.00;25.25;;;19.00;99.90;;;;;;6275754;22;20369;-51
2023/09/27 09:03:47;;;;;;;29.02;26.17;;;19.20;99.90;;;;;;6275925;22;20046;-50
2023/09/27 09:06:13;;;;;;;27.67;24.98;;;19.30;99.90;;;;;;6248449;22;20018;-51
2023/09/27 09:08:42;;;;;;;27.33;24.77;;;19.40;99.90;;;;;;6275812;22;20335;-49
2023/09/27 09:11:11;;;;;;;26.77;24.17;;;;;;;;;;6276059;22;20016;-49
2023/09/27 09:13:59;;;;;;;26.58;24.17;;;19.40;99.90;;;;;;6274037;22;20436;-50
2023/09/27 09:16:25;;;;;;;27.23;24.45;;;19.50;99.90;;;;;;6274674;22;20016;-49
2023/09/27 09:18:54;;;;;;;25.70;22.95;;;19.80;99.90;;;;;;6275670;22;20015;-49
2023/09/27 09:21:20;;;;;;;28.92;26.02;;;20.00;99.90;;;;;;6274521;22;20125;-51
2023/09/27 09:23:49;;;;;;;27.02;24.15;;;20.30;99.90;;;;;;6275124;22;20020;-50
2023/09/27 09:26:29;;;;;;;27.50;24.55;;;20.70;99.90;;;;;;6275080;22;20091;-50
2023/09/27 09:28:57;;;;;;;24.13;21.65;;;21.00;99.90;;;;;;6275461;22;20022;-46
2023/09/27 09:31:23;;;;;;;;;;;21.20;99.90;;;;;;6275342;22;20047;-47
2023/09/27 09:34:03;;;;;;;23.83;21.40;;;;;;;;;;6247872;22;19926;-48
2023/09/27 09:36:29;;;;;;;23.80;21.38;;;21.30;99.90;;;;;;6274978;22;20084;-47
2023/09/27 09:39:04;;;;;;;23.75;21.33;;;;;;;;;;6274229;22;20015;-50
2023/09/27 09:41:44;;;;;;;22.55;20.25;;;;;;;;;;6274785;22;20030;-47
2023/09/27 09:44:20;;;;;;;23.23;20.83;;;21.70;99.90;;;;;;6274316;22;20340;-47
2023/09/27 09:46:47;;;;;;;23.38;21.00;;;21.70;99.90;;;;;;6246891;22;20443;-48
2023/09/27 09:49:17;;;;;;;25.08;22.42;;;21.70;99.90;;;;;;6275570;22;20109;-47
2023/09/27 09:51:47;;;;;;;22.90;20.80;;;21.80;99.90;;;;;;6277423;22;20088;-47
2023/09/27 09:54:17;;;;;;;23.92;21.50;;;21.70;99.90;;;;;;6277145;22;20023;-47
2023/09/27 09:56:47;;;;;;;22.77;20.85;;;21.70;99.90;;;;;;6278067;22;20420;-48
2023/09/27 09:59:15;;;;;;;21.65;19.38;;;21.60;99.90;;;;;;6277338;22;20054;-47
2023/09/27 10:01:42;;;;;;;24.75;21.75;;;21.60;99.90;;;;;;6277341;22;20008;-48
2023/09/27 10:04:08;;;;;;;23.75;21.30;;;21.50;99.90;;;;;;6276870;22;20015;-50
2023/09/27 10:06:36;;;;;;;23.58;21.42;;;21.40;99.90;;;;;;6276733;22;20396;-51
2023/09/27 10:09:05;;;;;;;;;;;21.40;99.90;;;;;;6277587;22;20407;-47
2023/09/27 10:11:32;;;;;;;25.30;22.83;;;21.50;99.90;;;;;;6277566;22;19945;-47
2023/09/27 10:14:00;;;;;;;24.05;21.83;;;21.60;99.90;;;;;;6277181;22;20517;-49
2023/09/27 10:16:25;;;;;;;;;;;21.80;99.90;;;;;;6250169;22;20029;-48
2023/09/27 10:18:54;;;;;;;21.25;19.27;;;22.00;99.90;;;;;;6249142;22;19990;-48
2023/09/27 10:21:19;;;;;;;21.58;19.58;;;22.00;99.90;;;;;;6248518;22;20023;-48
2023/09/27 10:23:45;;;;;;;22.23;20.23;;;21.80;99.90;;;;;;6275827;22;20060;-48
2023/09/27 10:26:29;;;;;;;21.13;19.13;;;21.70;99.90;;;;;;6276201;22;20015;-50
2023/09/27 10:29:03;;;;;;;24.23;22.02;;;21.70;99.90;;;;;;6276582;22;20091;-51
2023/09/27 10:31:56;;;;;;;23.88;21.65;;;21.70;99.90;;;;;;6276166;22;20285;-47
2023/09/27 10:34:25;;;;;;;24.65;22.30;;;21.60;99.90;;;;;;6233127;22;20094;-47
2023/09/27 10:36:51;;;;;;;23.98;21.67;;;21.60;99.90;;;;;;6277141;22;20375;-49
2023/09/27 10:39:17;;;;;;;21.40;19.50;;;21.50;99.90;;;;;;6276622;22;20022;-47
2023/09/27 10:41:46;;;;;;;22.48;20.38;;;21.80;99.90;;;;;;6277311;22;20015;-51
2023/09/27 10:44:13;;;;;;;22.38;20.27;;;22.00;99.90;;;;;;6276954;22;20023;-48
2023/09/27 10:46:43;;;;;;;22.63;20.55;;;22.00;99.90;;;;;;6276803;22;20516;-47
2023/09/27 10:49:09;;;;;;;22.63;19.80;;;22.20;99.90;;;;;;6277055;22;20030;-49
2023/09/27 10:51:35;;;;;;;22.45;20.17;;;22.20;99.90;;;;;;6277049;22;20086;-48
2023/09/27 10:54:06;;;;;;;21.45;19.20;;;22.20;99.90;;;;;;6276496;22;20016;-50
2023/09/27 10:56:32;;;;;;;22.00;19.67;;;22.10;99.90;;;;;;6276069;22;20493;-47
2023/09/27 10:58:58;;;;;;;19.40;17.50;;;22.20;99.90;;;;;;6276147;22;20020;-48
2023/09/27 11:01:23;;;;;;;19.27;17.08;;;22.30;99.90;;;;;;6274855;22;20027;-48
2023/09/27 11:04:03;;;;;;;18.38;16.15;;;22.20;99.90;;;;;;6275799;22;20099;-45
2023/09/27 11:06:31;;;;;;;18.15;16.42;;;22.30;99.90;;;;;;6275692;22;20046;-47
2023/09/27 11:09:06;;;;;;;;;;;22.20;99.90;;;;;;6276149;22;20415;-49
2023/09/27 11:11:33;;;;;;;18.25;13.88;;;22.40;99.90;;;;;;6276448;22;19993;-47
2023/09/27 11:13:59;;;;;;;15.77;14.07;;;22.70;99.90;;;;;;6249596;22;20328;-47
2023/09/27 11:16:24;;;;;;;16.00;14.50;;;22.60;99.90;;;;;;6276267;22;20083;-48
2023/09/27 11:18:56;;;;;;;16.77;14.02;;;22.60;99.90;;;;;;6248765;22;20016;-48
2023/09/27 11:21:31;;;;;;;14.50;13.07;;;22.60;99.90;;;;;;6276741;22;20341;-50
2023/09/27 11:23:58;;;;;;;15.38;12.98;;;22.70;99.90;;;;;;6275964;22;20026;-46
2023/09/27 11:26:25;;;;;;;14.25;12.95;;;22.90;99.90;;;;;;6276242;22;20016;-49
2023/09/27 11:29:05;;;;;;;14.43;13.02;;;22.80;99.90;;;;;;6248932;22;20087;-47
2023/09/27 11:31:38;;;;;;;14.18;12.07;;;22.70;99.90;;;;;;6276200;22;20069;-48
2023/09/27 11:34:10;;;;;;;13.48;12.07;;;22.70;99.90;;;;;;6276136;22;20008;-47
2023/09/27 11:36:54;;;;;;;14.02;12.50;;;22.60;99.90;;;;;;6276295;22;20039;-49
2023/09/27 11:39:27;;;;;;;13.70;11.90;;;22.70;99.90;;;;;;6275953;22;20060;-48
2023/09/27 11:41:59;;;;;;;13.13;11.60;;;22.80;99.90;;;;;;6276276;22;20020;-49
2023/09/27 11:44:26;;;;;;;11.95;10.85;;;23.10;99.90;;;;;;6275540;22;20343;-50
2023/09/27 11:47:07;;;;;;;12.18;10.65;;;22.90;99.90;;;;;;6275958;22;20427;-47
2023/09/27 11:49:33;;;;;;;10.98;9.90;;;23.00;99.90;;;;;;6276637;22;20044;-47
2023/09/27 11:52:05;;;;;;;10.60;9.70;;;23.10;99.90;;;;;;6276362;22;20092;-49
2023/09/27 11:54:32;;;;;;;9.98;9.05;;;23.10;99.90;;;;;;6276281;22;20020;-47
2023/09/27 11:56:57;;;;;;;11.38;10.27;;;23.10;99.90;;;;;;6276243;22;20024;-46
2023/09/27 11:59:24;;;;;;;10.70;9.73;;;22.90;99.90;;;;;;6275965;22;20291;-47
2023/09/27 12:01:50;;;;;;;12.02;9.20;;;22.90;99.90;;;;;;6276196;22;20011;-49
2023/09/27 12:04:15;;;;;;;8.90;7.68;;;22.90;99.90;;;;;;6275856;22;20030;-48
2023/09/27 12:06:41;;;;;;;8.88;7.97;;;22.90;99.90;;;;;;6276375;22;20070;-45
2023/09/27 12:09:07;;;;;;;9.02;8.13;;;23.00;99.90;;;;;;6275752;22;20022;-46
2023/09/27 12:11:33;;;;;;;9.40;8.50;;;23.10;99.90;;;;;;6276090;22;20020;-48
2023/09/27 12:13:58;;;;;;;8.35;7.65;;;23.20;99.90;;;;;;6276457;22;20008;-47
2023/09/27 12:16:25;;;;;;;7.57;6.57;;;23.10;99.90;;;;;;6276240;22;20424;-46
2023/09/27 12:18:51;;;;;;;7.20;6.50;;;23.00;99.90;;;;;;6275329;22;20432;-47
2023/09/27 12:21:16;;;;;;;8.10;7.30;;;23.00;99.90;;;;;;6276110;22;20018;-47
2023/09/27 12:23:44;;;;;;;8.27;7.20;;;23.00;99.90;;;;;;6276194;22;20027;-48
2023/09/27 12:26:09;;;;;;;;;;;23.10;99.90;;;;;;6276495;22;20475;-49
2023/09/27 12:28:37;;;;;;;9.27;5.60;;;23.20;99.90;;;;;;6276045;22;19947;-47
2023/09/27 12:31:05;;;;;;;;;;;23.30;99.90;;;;;;6276040;22;20027;-47
2023/09/27 12:33:32;;;;;;;8.65;6.47;;;23.40;99.90;;;;;;6276467;22;20029;-47